« 全部撮-3その1 南ぬ島石垣空港 2013/3/7 thu | トップページ | 全部撮-3その3 南ぬ島石垣空港 2013/3/7 thu »

2013/03/14

全部撮-3その2 南ぬ島石垣空港 2013/3/7 thu

全部撮-3その1からつづき

富山探検隊の横で、この丘2番目の来訪者であったOTVが、しきりに中継のリハをやっている。どおやら担当は、ジェームス君のようだ。風に声が乗ってくるので、なにげに聞いていると馬鹿と言うのはやめましょう等、世の空気は読んでいるようだ。

で、生中継本番。地元枠の番宣のようだが・・・ その時着陸したのがOZ、背後にKE。ちっとも配慮になってない。狙ったのカー!

20130307_roig_231hl7731

AAR1743 RKSI-ROIG HL7731 A321-231

20130307_roig_232ja8939

JTA605 ROAH-ROIG JA8939 B737-4Q3

20130307_roig_233hl7731

KALと入れ替えの予定が、オープンスポットとなった。

ROIG 070300Z 14009KT 100V160 9999 FEW032 SCT060 23/14 Q1019

20130307_roig_234ja62an

ANA1765 ROAH-ROIG JA62AN B737-881

20130307_roig_235ja15an

ANA1746 ROIG-RJBB JA15AN B737-781

20130307_roig_236hl8223

KAL9738 ROIG-RKSI HL8223 B737-9B5ER

20130307_roig_237ja8935

RAC743 ROIG-ROYN JA8935 DHC8-100

20130307_roig_238ja65an

20130307_roig_239ja65an

ANA119 RJGG-ROIG JA65AN B737-881

エプロンはエプロン内プッシュバックが出来る広さ。しかし、グランドハンドリングの手際の悪さで、誤ってプッシュしたり、機長がクリアランスが取れるか心配で、停止したりとドタバタしたりした。

20130307_roig_240ja007p

JA007P T206H

那覇からやってきていた水上機が、空港に挨拶がてらコントロールゾーン通過。西表島の川に駐機しているらしい。

ROIG 070400Z 15011KT 9999 FEW030 SCT060 23/15 Q1018

20130307_roig_241ja67an

ANA1768 ROIG-ROAH JA67AN B737-881

20130307_roig_242ja8939

JTA608 ROIG-ROAH JA8939 B737-4Q3

20130307_roig_243hl7731

AAR1733 ROIG-RKSI HL7731 A321-231

20130307_roig_244ja62an

ANA1792 ROIG-ROMY JA62AN B737-881

20130307_roig_245ja8999

JTA609 ROAH-ROIG JA8999 B737-4Q3

20130307_roig_246ja307k

ANA1771 ROAH-ROIG JA307K B737-54K

20130307_roig_247ja8935

RAC744 ROIG-ROYN JA8935 DHC8-100

20130307_roig_248ja65an

20130307_roig_249ja65an

ANA1770 ROIG-ROAH JA65AN B737-881

この日唯一のRW04デパーチャー。風とトラフィックにより、これからも見れるだろう。

ROIG 070500Z 17009KT 100V200 9999 FEW028 BKN050 23/14 Q1018

20130307_roig_250ja9595

JA9595 B212 JCG

20130307_roig_251ja8999

JTA614 ROIG-ROAH JA8999 B737-4Q3

20130307_roig_252ja8938_2

JTA611 ROAH-ROIG JA8938 B737-4Q3

20130307_roig_253ja8999

JTA614 ROIG-ROAH JA8999 B737-4Q3

20130307_roig_254ja8935

RAC834 ROIG-ROMY JA8935 DHC8-100

20130307_roig_255ja307k

ANA1774 ROIG-ROAH JA307K B737-54K

20130307_roig_256jcg

海保エプロンにはウォッシュラックが新設され、エプロンの地上からシャワーが出るようになった。これで機体洗浄の手間が大幅に削減されますね。

ROIG 070600Z 15007KT 110V170 9999 SCT030 BKN040 22/14 Q1017

20130307_roig_257ja358k

20130307_roig_258ja358k

ANA1773 ROAH-ROIG JA358K B737-5L9

風が弱くなり慣れてもきたのか、すんなりT2でスポットインとなってきた。

20130307_roig_259ja8938

JTA616 ROIG-ROAH JA8938 B737-4Q3

20130307_roig_260ja8996

JTA615 ROAH-ROIG JA8996 B737-446

その3につづく・・・

|

« 全部撮-3その1 南ぬ島石垣空港 2013/3/7 thu | トップページ | 全部撮-3その3 南ぬ島石垣空港 2013/3/7 thu »

石垣空港」カテゴリの記事

コメント

コメントを書く



(ウェブ上には掲載しません)


コメントは記事投稿者が公開するまで表示されません。



トラックバック


この記事へのトラックバック一覧です: 全部撮-3その2 南ぬ島石垣空港 2013/3/7 thu:

« 全部撮-3その1 南ぬ島石垣空港 2013/3/7 thu | トップページ | 全部撮-3その3 南ぬ島石垣空港 2013/3/7 thu »